sensor_id;sensor_type;location;lat;lon;timestamp;pressure;altitude;pressure_sealevel;temperature;humidity
39613;BME280;25303;48.896;13.342;2023-03-04T00:00:34;92964.78;;;2.34;60.30
39613;BME280;25303;48.896;13.342;2023-03-04T00:03:17;92952.88;;;2.35;60.43
39613;BME280;25303;48.896;13.342;2023-03-04T00:06:00;92952.88;;;2.35;60.38
39613;BME280;25303;48.896;13.342;2023-03-04T00:08:43;92948.72;;;2.34;60.30
39613;BME280;25303;48.896;13.342;2023-03-04T00:11:26;92956.34;;;2.34;60.53
39613;BME280;25303;48.896;13.342;2023-03-04T00:14:10;92947.09;;;2.33;60.73
39613;BME280;25303;48.896;13.342;2023-03-04T00:16:53;92950.66;;;2.30;60.58
39613;BME280;25303;48.896;13.342;2023-03-04T00:19:36;92952.41;;;2.30;60.53
39613;BME280;25303;48.896;13.342;2023-03-04T00:22:18;92949.16;;;2.27;60.70
39613;BME280;25303;48.896;13.342;2023-03-04T00:25:01;92957.69;;;2.26;60.75
39613;BME280;25303;48.896;13.342;2023-03-04T00:27:44;92954.31;;;2.26;60.75
39613;BME280;25303;48.896;13.342;2023-03-04T00:30:29;92958.69;;;2.24;60.61
39613;BME280;25303;48.896;13.342;2023-03-04T00:33:11;92953.84;;;2.21;60.78
39613;BME280;25303;48.896;13.342;2023-03-04T00:35:54;92954.75;;;2.20;60.60
39613;BME280;25303;48.896;13.342;2023-03-04T00:38:37;92954.84;;;2.18;60.52
39613;BME280;25303;48.896;13.342;2023-03-04T00:41:22;92949.16;;;2.15;60.74
39613;BME280;25303;48.896;13.342;2023-03-04T00:44:05;92951.00;;;2.12;60.19
39613;BME280;25303;48.896;13.342;2023-03-04T00:46:49;92950.19;;;2.12;60.25
39613;BME280;25303;48.896;13.342;2023-03-04T00:49:32;92948.66;;;2.09;60.21
39613;BME280;25303;48.896;13.342;2023-03-04T00:52:15;92942.06;;;2.07;60.44
39613;BME280;25303;48.896;13.342;2023-03-04T00:54:58;92943.09;;;2.04;60.59
39613;BME280;25303;48.896;13.342;2023-03-04T00:57:41;92942.47;;;2.01;60.60
39613;BME280;25303;48.896;13.342;2023-03-04T01:00:24;92940.03;;;1.99;60.63
39613;BME280;25303;48.896;13.342;2023-03-04T01:03:08;92936.00;;;1.96;60.61
39613;BME280;25303;48.896;13.342;2023-03-04T01:05:51;92931.00;;;1.95;60.50
39613;BME280;25303;48.896;13.342;2023-03-04T01:08:34;92931.13;;;1.93;60.47
39613;BME280;25303;48.896;13.342;2023-03-04T01:11:16;92925.44;;;1.90;60.63
39613;BME280;25303;48.896;13.342;2023-03-04T01:14:01;92921.47;;;1.86;60.85
39613;BME280;25303;48.896;13.342;2023-03-04T01:16:44;92919.94;;;1.83;60.76
39613;BME280;25303;48.896;13.342;2023-03-04T01:19:28;92917.63;;;1.80;60.91
39613;BME280;25303;48.896;13.342;2023-03-04T01:22:12;92923.69;;;1.77;61.01
39613;BME280;25303;48.896;13.342;2023-03-04T01:24:57;92921.34;;;1.74;61.09
39613;BME280;25303;48.896;13.342;2023-03-04T01:27:40;92917.31;;;1.72;61.11
39613;BME280;25303;48.896;13.342;2023-03-04T01:30:22;92913.25;;;1.69;61.15
39613;BME280;25303;48.896;13.342;2023-03-04T01:33:05;92916.78;;;1.66;61.04
39613;BME280;25303;48.896;13.342;2023-03-04T01:35:51;92914.56;;;1.62;61.07
39613;BME280;25303;48.896;13.342;2023-03-04T01:38:34;92918.13;;;1.59;61.19
39613;BME280;25303;48.896;13.342;2023-03-04T01:41:20;92919.94;;;1.57;61.22
39613;BME280;25303;48.896;13.342;2023-03-04T01:44:04;92916.69;;;1.55;61.24
39613;BME280;25303;48.896;13.342;2023-03-04T01:46:49;92910.09;;;1.52;61.03
39613;BME280;25303;48.896;13.342;2023-03-04T01:49:33;92911.09;;;1.50;61.32
39613;BME280;25303;48.896;13.342;2023-03-04T01:52:17;92903.72;;;1.47;61.49
39613;BME280;25303;48.896;13.342;2023-03-04T01:55:00;92904.72;;;1.44;61.35
39613;BME280;25303;48.896;13.342;2023-03-04T01:57:43;92898.13;;;1.42;61.29
39613;BME280;25303;48.896;13.342;2023-03-04T02:00:29;92902.47;;;1.40;61.38
39613;BME280;25303;48.896;13.342;2023-03-04T02:03:15;92899.16;;;1.39;61.15
39613;BME280;25303;48.896;13.342;2023-03-04T02:06:00;92902.69;;;1.36;61.32
39613;BME280;25303;48.896;13.342;2023-03-04T02:08:44;92900.13;;;1.36;61.28
39613;BME280;25303;48.896;13.342;2023-03-04T02:11:27;92901.06;;;1.35;61.28
39613;BME280;25303;48.896;13.342;2023-03-04T02:14:10;92888.59;;;1.32;61.29
39613;BME280;25303;48.896;13.342;2023-03-04T02:16:54;92886.25;;;1.29;61.26
39613;BME280;25303;48.896;13.342;2023-03-04T02:19:43;92881.25;;;1.28;61.45
39613;BME280;25303;48.896;13.342;2023-03-04T02:22:31;92879.75;;;1.25;61.28
39613;BME280;25303;48.896;13.342;2023-03-04T02:25:23;92881.69;;;1.21;61.28
39613;BME280;25303;48.896;13.342;2023-03-04T02:28:09;92883.69;;;1.16;61.47
39613;BME280;25303;48.896;13.342;2023-03-04T02:30:52;92882.25;;;1.12;61.57
39613;BME280;25303;48.896;13.342;2023-03-04T02:33:35;92883.28;;;1.10;61.57
39613;BME280;25303;48.896;13.342;2023-03-04T02:36:18;92882.69;;;1.06;61.86
39613;BME280;25303;48.896;13.342;2023-03-04T02:39:05;92882.03;;;1.02;61.81
39613;BME280;25303;48.896;13.342;2023-03-04T02:41:51;92872.31;;;0.96;62.00
39613;BME280;25303;48.896;13.342;2023-03-04T02:44:39;92873.31;;;0.94;61.98
39613;BME280;25303;48.896;13.342;2023-03-04T02:47:22;92869.38;;;0.89;62.13
39613;BME280;25303;48.896;13.342;2023-03-04T02:50:05;92867.09;;;0.85;62.37
39613;BME280;25303;48.896;13.342;2023-03-04T02:52:48;92869.94;;;0.80;62.28
39613;BME280;25303;48.896;13.342;2023-03-04T02:55:33;92871.84;;;0.77;62.31
39613;BME280;25303;48.896;13.342;2023-03-04T02:58:16;92861.91;;;0.73;62.48
39613;BME280;25303;48.896;13.342;2023-03-04T03:01:01;92867.28;;;0.69;62.81
39613;BME280;25303;48.896;13.342;2023-03-04T03:03:44;92864.94;;;0.66;62.72
39613;BME280;25303;48.896;13.342;2023-03-04T03:06:27;92859.16;;;0.64;62.69
39613;BME280;25303;48.896;13.342;2023-03-04T03:09:10;92861.88;;;0.60;62.91
39613;BME280;25303;48.896;13.342;2023-03-04T03:11:53;92857.81;;;0.58;62.96
39613;BME280;25303;48.896;13.342;2023-03-04T03:14:36;92856.38;;;0.54;63.08
39613;BME280;25303;48.896;13.342;2023-03-04T03:17:23;92854.88;;;0.51;63.11
39613;BME280;25303;48.896;13.342;2023-03-04T03:20:07;92852.53;;;0.48;63.13
39613;BME280;25303;48.896;13.342;2023-03-04T03:22:50;92846.91;;;0.43;63.47
39613;BME280;25303;48.896;13.342;2023-03-04T03:25:33;92860.59;;;0.40;63.33
39613;BME280;25303;48.896;13.342;2023-03-04T03:28:16;92848.22;;;0.36;63.57
39613;BME280;25303;48.896;13.342;2023-03-04T03:30:59;92856.00;;;0.33;63.50
39613;BME280;25303;48.896;13.342;2023-03-04T03:33:43;92850.22;;;0.30;63.61
39613;BME280;25303;48.896;13.342;2023-03-04T03:36:26;92853.66;;;0.29;63.88
39613;BME280;25303;48.896;13.342;2023-03-04T03:39:09;92852.88;;;0.29;63.89
39613;BME280;25303;48.896;13.342;2023-03-04T03:41:52;92848.69;;;0.28;64.05
39613;BME280;25303;48.896;13.342;2023-03-04T03:44:35;92846.25;;;0.26;64.16
39613;BME280;25303;48.896;13.342;2023-03-04T03:47:18;92852.94;;;0.27;64.28
39613;BME280;25303;48.896;13.342;2023-03-04T03:50:02;92845.44;;;0.26;64.46
39613;BME280;25303;48.896;13.342;2023-03-04T03:52:45;92842.09;;;0.25;64.57
39613;BME280;25303;48.896;13.342;2023-03-04T03:55:28;92846.34;;;0.25;64.48
39613;BME280;25303;48.896;13.342;2023-03-04T03:58:11;92843.63;;;0.28;64.59
39613;BME280;25303;48.896;13.342;2023-03-04T04:00:54;92844.44;;;0.28;64.39
39613;BME280;25303;48.896;13.342;2023-03-04T04:03:39;92848.53;;;0.31;64.32
39613;BME280;25303;48.896;13.342;2023-03-04T04:06:23;92845.88;;;0.33;64.25
39613;BME280;25303;48.896;13.342;2023-03-04T04:09:06;92844.06;;;0.35;64.25
39613;BME280;25303;48.896;13.342;2023-03-04T04:11:49;92843.88;;;0.38;64.11
39613;BME280;25303;48.896;13.342;2023-03-04T04:14:32;92848.94;;;0.38;64.25
39613;BME280;25303;48.896;13.342;2023-03-04T04:17:15;92843.16;;;0.36;64.18
39613;BME280;25303;48.896;13.342;2023-03-04T04:19:58;92840.81;;;0.33;64.23
39613;BME280;25303;48.896;13.342;2023-03-04T04:22:42;92852.69;;;0.32;64.31
39613;BME280;25303;48.896;13.342;2023-03-04T04:25:25;92852.16;;;0.27;64.64
39613;BME280;25303;48.896;13.342;2023-03-04T04:28:08;92849.19;;;0.20;64.63
39613;BME280;25303;48.896;13.342;2023-03-04T04:30:51;92852.06;;;0.14;64.80
39613;BME280;25303;48.896;13.342;2023-03-04T04:33:34;92853.28;;;0.08;64.98
39613;BME280;25303;48.896;13.342;2023-03-04T04:36:17;92848.50;;;0.04;65.12
39613;BME280;25303;48.896;13.342;2023-03-04T04:39:01;92842.81;;;0.00;64.99
39613;BME280;25303;48.896;13.342;2023-03-04T04:41:45;92847.97;;;-0.02;64.91
39613;BME280;25303;48.896;13.342;2023-03-04T04:44:28;92842.91;;;-0.02;65.21
39613;BME280;25303;48.896;13.342;2023-03-04T04:47:11;92843.00;;;-0.03;65.37
39613;BME280;25303;48.896;13.342;2023-03-04T04:49:54;92835.59;;;-0.06;65.42
39613;BME280;25303;48.896;13.342;2023-03-04T04:52:37;92842.47;;;-0.08;65.60
39613;BME280;25303;48.896;13.342;2023-03-04T04:55:21;92834.88;;;-0.08;65.54
39613;BME280;25303;48.896;13.342;2023-03-04T04:58:04;92841.56;;;-0.07;65.87
39613;BME280;25303;48.896;13.342;2023-03-04T05:00:47;92837.28;;;-0.07;65.87
39613;BME280;25303;48.896;13.342;2023-03-04T05:03:31;92834.06;;;-0.09;65.78
39613;BME280;25303;48.896;13.342;2023-03-04T05:06:14;92836.06;;;-0.14;65.93
39613;BME280;25303;48.896;13.342;2023-03-04T05:08:57;92838.66;;;-0.16;65.99
39613;BME280;25303;48.896;13.342;2023-03-04T05:11:41;92838.03;;;-0.19;66.21
39613;BME280;25303;48.896;13.342;2023-03-04T05:14:24;92834.91;;;-0.23;66.15
39613;BME280;25303;48.896;13.342;2023-03-04T05:17:07;92834.28;;;-0.26;66.27
39613;BME280;25303;48.896;13.342;2023-03-04T05:19:49;92837.16;;;-0.33;66.44
39613;BME280;25303;48.896;13.342;2023-03-04T05:22:32;92839.97;;;-0.37;66.35
39613;BME280;25303;48.896;13.342;2023-03-04T05:25:15;92837.00;;;-0.44;66.53
39613;BME280;25303;48.896;13.342;2023-03-04T05:27:59;92836.56;;;-0.51;66.25
39613;BME280;25303;48.896;13.342;2023-03-04T05:30:43;92839.53;;;-0.58;66.17
39613;BME280;25303;48.896;13.342;2023-03-04T05:33:26;92836.47;;;-0.64;65.46
39613;BME280;25303;48.896;13.342;2023-03-04T05:36:10;92842.97;;;-0.59;64.98
39613;BME280;25303;48.896;13.342;2023-03-04T05:38:52;92838.16;;;-0.64;64.39
39613;BME280;25303;48.896;13.342;2023-03-04T05:41:35;92831.56;;;-0.67;64.45
39613;BME280;25303;48.896;13.342;2023-03-04T05:44:19;92836.00;;;-0.70;64.23
39613;BME280;25303;48.896;13.342;2023-03-04T05:47:02;92838.59;;;-0.72;63.51
39613;BME280;25303;48.896;13.342;2023-03-04T05:49:45;92832.75;;;-0.72;62.46
39613;BME280;25303;48.896;13.342;2023-03-04T05:52:28;92844.03;;;-0.64;62.06
39613;BME280;25303;48.896;13.342;2023-03-04T05:55:11;92836.28;;;-0.60;62.23
39613;BME280;25303;48.896;13.342;2023-03-04T05:57:54;92835.47;;;-0.61;62.08
39613;BME280;25303;48.896;13.342;2023-03-04T06:00:39;92838.09;;;-0.63;62.03
39613;BME280;25303;48.896;13.342;2023-03-04T06:03:21;92840.69;;;-0.64;61.89
39613;BME280;25303;48.896;13.342;2023-03-04T06:06:05;92841.41;;;-0.62;61.85
39613;BME280;25303;48.896;13.342;2023-03-04T06:08:48;92841.50;;;-0.64;61.87
39613;BME280;25303;48.896;13.342;2023-03-04T06:11:30;92843.16;;;-0.63;61.93
39613;BME280;25303;48.896;13.342;2023-03-04T06:14:16;92843.03;;;-0.61;62.08
39613;BME280;25303;48.896;13.342;2023-03-04T06:17:01;92851.44;;;-0.60;62.27
39613;BME280;25303;48.896;13.342;2023-03-04T06:19:43;92859.84;;;-0.60;62.34
39613;BME280;25303;48.896;13.342;2023-03-04T06:22:26;92852.19;;;-0.58;62.67
39613;BME280;25303;48.896;13.342;2023-03-04T06:25:09;92865.63;;;-0.58;63.01
39613;BME280;25303;48.896;13.342;2023-03-04T06:27:52;92865.63;;;-0.58;63.37
39613;BME280;25303;48.896;13.342;2023-03-04T06:30:35;92867.06;;;-0.54;63.32
39613;BME280;25303;48.896;13.342;2023-03-04T06:33:20;92874.22;;;-0.46;63.65
39613;BME280;25303;48.896;13.342;2023-03-04T06:36:03;92878.88;;;-0.40;63.76
39613;BME280;25303;48.896;13.342;2023-03-04T06:38:46;92872.41;;;-0.29;63.89
39613;BME280;25303;48.896;13.342;2023-03-04T06:41:29;92879.44;;;-0.20;64.06
39613;BME280;25303;48.896;13.342;2023-03-04T06:44:11;92880.53;;;-0.10;64.21
39613;BME280;25303;48.896;13.342;2023-03-04T06:46:54;92890.53;;;0.06;64.23
39613;BME280;25303;48.896;13.342;2023-03-04T06:49:38;92881.19;;;0.21;64.22
39613;BME280;25303;48.896;13.342;2023-03-04T06:52:21;92887.91;;;0.35;64.11
39613;BME280;25303;48.896;13.342;2023-03-04T06:55:05;92887.19;;;0.48;64.00
39613;BME280;25303;48.896;13.342;2023-03-04T06:57:48;92886.69;;;0.55;63.60
39613;BME280;25303;48.896;13.342;2023-03-04T07:00:31;92885.69;;;0.58;63.45
39613;BME280;25303;48.896;13.342;2023-03-04T07:03:14;92885.09;;;0.67;63.81
39613;BME280;25303;48.896;13.342;2023-03-04T07:05:58;92887.69;;;0.80;63.47
39613;BME280;25303;48.896;13.342;2023-03-04T07:08:42;92885.47;;;0.88;63.23
39613;BME280;25303;48.896;13.342;2023-03-04T07:11:25;92896.53;;;1.00;63.24
39613;BME280;25303;48.896;13.342;2023-03-04T07:14:08;92894.75;;;1.15;63.25
39613;BME280;25303;48.896;13.342;2023-03-04T07:16:51;92898.09;;;1.29;63.18
39613;BME280;25303;48.896;13.342;2023-03-04T07:19:34;92897.22;;;1.43;63.20
39613;BME280;25303;48.896;13.342;2023-03-04T07:22:19;92899.44;;;1.60;62.93
39613;BME280;25303;48.896;13.342;2023-03-04T07:25:02;92896.69;;;1.76;62.57
39613;BME280;25303;48.896;13.342;2023-03-04T07:27:44;92896.88;;;1.86;62.28
39613;BME280;25303;48.896;13.342;2023-03-04T07:30:27;92900.31;;;1.98;62.11
39613;BME280;25303;48.896;13.342;2023-03-04T07:33:10;92893.50;;;2.11;61.91
39613;BME280;25303;48.896;13.342;2023-03-04T07:35:58;92894.06;;;2.28;61.62
39613;BME280;25303;48.896;13.342;2023-03-04T07:38:43;92901.34;;;2.46;61.17
39613;BME280;25303;48.896;13.342;2023-03-04T07:41:27;92904.63;;;2.59;60.52
39613;BME280;25303;48.896;13.342;2023-03-04T07:44:11;92908.16;;;2.69;60.36
39613;BME280;25303;48.896;13.342;2023-03-04T07:46:54;92903.34;;;2.78;59.66
39613;BME280;25303;48.896;13.342;2023-03-04T07:49:37;92899.66;;;2.82;58.53
39613;BME280;25303;48.896;13.342;2023-03-04T07:52:19;92908.72;;;2.86;58.55
39613;BME280;25303;48.896;13.342;2023-03-04T07:55:04;92906.00;;;2.76;57.16
39613;BME280;25303;48.896;13.342;2023-03-04T07:57:47;92904.81;;;2.69;57.34
39613;BME280;25303;48.896;13.342;2023-03-04T08:00:30;92901.47;;;2.68;57.46
39613;BME280;25303;48.896;13.342;2023-03-04T08:03:13;92900.88;;;2.65;57.35
39613;BME280;25303;48.896;13.342;2023-03-04T08:05:56;92899.25;;;2.64;57.28
39613;BME280;25303;48.896;13.342;2023-03-04T08:08:39;92900.53;;;2.69;56.91
39613;BME280;25303;48.896;13.342;2023-03-04T08:11:23;92900.22;;;2.74;56.08
39613;BME280;25303;48.896;13.342;2023-03-04T08:14:06;92898.47;;;2.74;53.46
39613;BME280;25303;48.896;13.342;2023-03-04T08:16:49;92892.72;;;2.72;53.74
39613;BME280;25303;48.896;13.342;2023-03-04T08:19:32;92894.59;;;2.82;54.91
39613;BME280;25303;48.896;13.342;2023-03-04T08:22:15;92896.47;;;2.91;54.30
39613;BME280;25303;48.896;13.342;2023-03-04T08:24:58;92896.78;;;2.86;53.49
39613;BME280;25303;48.896;13.342;2023-03-04T08:27:42;92894.53;;;2.95;54.15
39613;BME280;25303;48.896;13.342;2023-03-04T08:30:25;92890.41;;;3.05;54.39
39613;BME280;25303;48.896;13.342;2023-03-04T08:33:09;92896.19;;;3.07;53.71
39613;BME280;25303;48.896;13.342;2023-03-04T08:35:52;92890.91;;;3.22;53.88
39613;BME280;25303;48.896;13.342;2023-03-04T08:38:35;92894.66;;;3.40;53.93
39613;BME280;25303;48.896;13.342;2023-03-04T08:41:18;92889.69;;;3.50;53.21
39613;BME280;25303;48.896;13.342;2023-03-04T08:44:02;92885.91;;;3.67;53.08
39613;BME280;25303;48.896;13.342;2023-03-04T08:46:45;92885.00;;;3.79;52.42
39613;BME280;25303;48.896;13.342;2023-03-04T08:49:28;92887.53;;;3.91;52.55
39613;BME280;25303;48.896;13.342;2023-03-04T08:52:11;92898.78;;;4.00;52.20
39613;BME280;25303;48.896;13.342;2023-03-04T08:54:54;92891.13;;;4.11;52.41
39613;BME280;25303;48.896;13.342;2023-03-04T08:57:37;92890.06;;;4.25;52.17
39613;BME280;25303;48.896;13.342;2023-03-04T09:00:21;92892.59;;;4.36;51.64
39613;BME280;25303;48.896;13.342;2023-03-04T09:03:04;92897.00;;;4.46;51.53
39613;BME280;25303;48.896;13.342;2023-03-04T09:05:47;92898.81;;;4.55;51.22
39613;BME280;25303;48.896;13.342;2023-03-04T09:08:30;92898.69;;;4.68;51.76
39613;BME280;25303;48.896;13.342;2023-03-04T09:11:14;92902.09;;;4.90;51.79
39613;BME280;25303;48.896;13.342;2023-03-04T09:13:57;92903.19;;;5.08;51.22
39613;BME280;25303;48.896;13.342;2023-03-04T09:16:41;92899.16;;;5.27;50.94
39613;BME280;25303;48.896;13.342;2023-03-04T09:19:24;92899.16;;;5.48;50.34
39613;BME280;25303;48.896;13.342;2023-03-04T09:22:08;92905.47;;;5.65;49.83
39613;BME280;25303;48.896;13.342;2023-03-04T09:24:51;92900.31;;;5.86;49.44
39613;BME280;25303;48.896;13.342;2023-03-04T09:27:34;92902.00;;;5.97;48.80
39613;BME280;25303;48.896;13.342;2023-03-04T09:30:17;92897.09;;;6.15;48.75
39613;BME280;25303;48.896;13.342;2023-03-04T09:33:01;92900.41;;;6.37;48.97
39613;BME280;25303;48.896;13.342;2023-03-04T09:35:44;92898.03;;;6.45;48.13
39613;BME280;25303;48.896;13.342;2023-03-04T09:38:29;92895.91;;;6.60;48.47
39613;BME280;25303;48.896;13.342;2023-03-04T09:41:15;92906.16;;;6.70;47.87
39613;BME280;25303;48.896;13.342;2023-03-04T09:43:59;92902.94;;;6.78;48.35
39613;BME280;25303;48.896;13.342;2023-03-04T09:46:47;92904.16;;;6.93;48.30
39613;BME280;25303;48.896;13.342;2023-03-04T09:49:32;92899.22;;;7.02;47.66
39613;BME280;25303;48.896;13.342;2023-03-04T09:52:22;92893.25;;;7.01;47.00
39613;BME280;25303;48.896;13.342;2023-03-04T09:55:17;92899.59;;;7.17;47.64
39613;BME280;25303;48.896;13.342;2023-03-04T09:58:08;92893.13;;;7.32;47.38
39613;BME280;25303;48.896;13.342;2023-03-04T10:00:54;92894.06;;;7.51;47.55
39613;BME280;25303;48.896;13.342;2023-03-04T10:03:42;92892.84;;;7.55;46.27
39613;BME280;25303;48.896;13.342;2023-03-04T10:06:30;92894.03;;;7.70;47.16
39613;BME280;25303;48.896;13.342;2023-03-04T10:09:17;92893.19;;;7.80;46.45
39613;BME280;25303;48.896;13.342;2023-03-04T10:12:04;92891.41;;;7.90;46.67
39613;BME280;25303;48.896;13.342;2023-03-04T10:14:51;92886.94;;;8.02;46.54
39613;BME280;25303;48.896;13.342;2023-03-04T10:17:39;92887.53;;;8.14;46.30
39613;BME280;25303;48.896;13.342;2023-03-04T10:20:26;92886.72;;;8.23;46.24
39613;BME280;25303;48.896;13.342;2023-03-04T10:23:17;92885.72;;;8.34;45.69
39613;BME280;25303;48.896;13.342;2023-03-04T10:26:11;92883.63;;;8.47;44.78
39613;BME280;25303;48.896;13.342;2023-03-04T10:28:54;92878.78;;;8.16;44.38
39613;BME280;25303;48.896;13.342;2023-03-04T10:31:37;92874.50;;;7.97;44.79
39613;BME280;25303;48.896;13.342;2023-03-04T10:34:22;92864.16;;;7.89;45.39
39613;BME280;25303;48.896;13.342;2023-03-04T10:37:06;92864.69;;;7.93;45.39
39613;BME280;25303;48.896;13.342;2023-03-04T10:39:51;92868.28;;;8.10;45.35
39613;BME280;25303;48.896;13.342;2023-03-04T10:42:34;92857.97;;;8.19;45.72
39613;BME280;25303;48.896;13.342;2023-03-04T10:45:20;92860.63;;;8.28;45.69
39613;BME280;25303;48.896;13.342;2023-03-04T10:48:03;92869.13;;;8.28;45.99
39613;BME280;25303;48.896;13.342;2023-03-04T10:50:46;92857.28;;;8.27;45.68
39613;BME280;25303;48.896;13.342;2023-03-04T10:53:32;92854.13;;;8.33;45.80
39613;BME280;25303;48.896;13.342;2023-03-04T10:56:31;92856.25;;;8.38;45.37
39613;BME280;25303;48.896;13.342;2023-03-04T10:59:46;92851.66;;;8.42;44.69
39613;BME280;25303;48.896;13.342;2023-03-04T11:02:32;92849.44;;;8.29;45.40
39613;BME280;25303;48.896;13.342;2023-03-04T11:05:17;92846.88;;;8.29;45.76
39613;BME280;25303;48.896;13.342;2023-03-04T11:08:00;92845.63;;;8.33;45.87
39613;BME280;25303;48.896;13.342;2023-03-04T11:10:43;92847.09;;;8.35;45.47
39613;BME280;25303;48.896;13.342;2023-03-04T11:13:29;92847.16;;;8.26;45.05
39613;BME280;25303;48.896;13.342;2023-03-04T11:16:24;92840.28;;;8.26;44.57
39613;BME280;25303;48.896;13.342;2023-03-04T11:19:13;92835.84;;;8.18;44.67
39613;BME280;25303;48.896;13.342;2023-03-04T11:21:58;92833.56;;;8.15;45.07
39613;BME280;25303;48.896;13.342;2023-03-04T11:24:42;92835.56;;;8.21;45.19
39613;BME280;25303;48.896;13.342;2023-03-04T11:27:35;92840.63;;;8.03;44.32
39613;BME280;25303;48.896;13.342;2023-03-04T11:30:38;92830.66;;;8.00;44.30
39613;BME280;25303;48.896;13.342;2023-03-04T11:33:26;92829.06;;;7.89;44.76
39613;BME280;25303;48.896;13.342;2023-03-04T11:36:24;92833.19;;;7.72;45.04
39613;BME280;25303;48.896;13.342;2023-03-04T11:39:16;92825.34;;;7.74;45.30
39613;BME280;25303;48.896;13.342;2023-03-04T11:42:05;92820.50;;;7.71;45.11
39613;BME280;25303;48.896;13.342;2023-03-04T11:44:53;92814.44;;;7.72;45.44
39613;BME280;25303;48.896;13.342;2023-03-04T11:47:55;92818.22;;;7.78;45.43
39613;BME280;25303;48.896;13.342;2023-03-04T11:50:46;92815.00;;;7.75;45.56
39613;BME280;25303;48.896;13.342;2023-03-04T11:53:36;92820.66;;;7.69;45.47
39613;BME280;25303;48.896;13.342;2023-03-04T11:56:29;92825.41;;;7.54;45.13
39613;BME280;25303;48.896;13.342;2023-03-04T11:59:35;92817.09;;;7.52;45.21
39613;BME280;25303;48.896;13.342;2023-03-04T12:02:29;92813.06;;;7.30;45.15
39613;BME280;25303;48.896;13.342;2023-03-04T12:05:25;92813.88;;;7.40;45.59
39613;BME280;25303;48.896;13.342;2023-03-04T12:11:35;92808.16;;;7.56;45.96
39613;BME280;25303;48.896;13.342;2023-03-04T12:14:30;92810.88;;;7.45;45.04
39613;BME280;25303;48.896;13.342;2023-03-04T12:17:32;92802.97;;;7.19;45.43
39613;BME280;25303;48.896;13.342;2023-03-04T12:20:37;92809.03;;;7.27;45.23
39613;BME280;25303;48.896;13.342;2023-03-04T12:23:37;92800.72;;;6.96;45.18
39613;BME280;25303;48.896;13.342;2023-03-04T12:26:25;92807.44;;;6.97;45.32
39613;BME280;25303;48.896;13.342;2023-03-04T12:29:14;92802.75;;;6.82;45.70
39613;BME280;25303;48.896;13.342;2023-03-04T12:32:06;92796.69;;;6.64;45.95
39613;BME280;25303;48.896;13.342;2023-03-04T12:35:08;92795.34;;;6.60;45.95
39613;BME280;25303;48.896;13.342;2023-03-04T12:38:07;92794.00;;;6.65;45.81
39613;BME280;25303;48.896;13.342;2023-03-04T12:40:55;92792.38;;;6.64;46.02
39613;BME280;25303;48.896;13.342;2023-03-04T12:43:49;92795.72;;;6.65;45.20
39613;BME280;25303;48.896;13.342;2023-03-04T12:46:36;92798.94;;;6.47;45.19
39613;BME280;25303;48.896;13.342;2023-03-04T12:49:32;92797.22;;;6.38;45.65
39613;BME280;25303;48.896;13.342;2023-03-04T12:52:23;92801.09;;;6.32;46.24
39613;BME280;25303;48.896;13.342;2023-03-04T12:55:13;92797.88;;;6.40;46.14
39613;BME280;25303;48.896;13.342;2023-03-04T12:57:57;92787.50;;;6.42;46.00
39613;BME280;25303;48.896;13.342;2023-03-04T13:00:47;92793.97;;;6.36;45.84
39613;BME280;25303;48.896;13.342;2023-03-04T13:03:40;92794.22;;;6.23;45.95
39613;BME280;25303;48.896;13.342;2023-03-04T13:06:33;92794.38;;;6.31;46.15
39613;BME280;25303;48.896;13.342;2023-03-04T13:09:23;92795.59;;;6.37;46.14
39613;BME280;25303;48.896;13.342;2023-03-04T13:12:16;92789.25;;;6.31;45.72
39613;BME280;25303;48.896;13.342;2023-03-04T13:15:28;92787.06;;;6.07;45.70
39613;BME280;25303;48.896;13.342;2023-03-04T13:18:29;92777.25;;;5.81;45.51
39613;BME280;25303;48.896;13.342;2023-03-04T13:21:21;92774.81;;;5.70;45.77
39613;BME280;25303;48.896;13.342;2023-03-04T13:27:44;92791.66;;;5.20;46.04
39613;BME280;25303;48.896;13.342;2023-03-04T13:30:40;92784.56;;;4.81;46.29
39613;BME280;25303;48.896;13.342;2023-03-04T13:33:47;92781.00;;;4.40;47.25
39613;BME280;25303;48.896;13.342;2023-03-04T13:39:39;92794.16;;;3.69;48.40
39613;BME280;25303;48.896;13.342;2023-03-04T13:42:40;92794.59;;;3.51;48.45
39613;BME280;25303;48.896;13.342;2023-03-04T13:45:33;92794.94;;;3.24;48.92
39613;BME280;25303;48.896;13.342;2023-03-04T13:48:26;92785.09;;;3.19;49.55
39613;BME280;25303;48.896;13.342;2023-03-04T13:51:15;92788.44;;;3.08;49.48
39613;BME280;25303;48.896;13.342;2023-03-04T13:54:14;92788.66;;;3.05;50.09
39613;BME280;25303;48.896;13.342;2023-03-04T13:57:14;92797.41;;;2.78;49.62
39613;BME280;25303;48.896;13.342;2023-03-04T13:59:58;92792.00;;;2.58;50.23
39613;BME280;25303;48.896;13.342;2023-03-04T14:02:42;92790.88;;;2.63;50.63
39613;BME280;25303;48.896;13.342;2023-03-04T14:05:25;92787.53;;;2.73;50.93
39613;BME280;25303;48.896;13.342;2023-03-04T14:08:18;92782.00;;;2.68;51.12
39613;BME280;25303;48.896;13.342;2023-03-04T14:11:01;92789.41;;;2.71;50.67
39613;BME280;25303;48.896;13.342;2023-03-04T14:13:44;92796.50;;;2.55;51.33
39613;BME280;25303;48.896;13.342;2023-03-04T14:16:27;92792.06;;;2.46;50.87
39613;BME280;25303;48.896;13.342;2023-03-04T14:19:15;92789.38;;;2.36;50.94
39613;BME280;25303;48.896;13.342;2023-03-04T14:21:59;92794.53;;;1.99;51.52
39613;BME280;25303;48.896;13.342;2023-03-04T14:24:54;92792.19;;;1.95;51.99
39613;BME280;25303;48.896;13.342;2023-03-04T14:27:37;92795.19;;;2.01;51.87
39613;BME280;25303;48.896;13.342;2023-03-04T14:30:22;92796.78;;;1.40;52.26
39613;BME280;25303;48.896;13.342;2023-03-04T14:33:24;92789.47;;;1.10;52.87
39613;BME280;25303;48.896;13.342;2023-03-04T14:36:15;92786.81;;;1.11;54.14
39613;BME280;25303;48.896;13.342;2023-03-04T14:39:00;92790.41;;;1.21;53.25
39613;BME280;25303;48.896;13.342;2023-03-04T14:41:44;92772.53;;;1.23;53.98
39613;BME280;25303;48.896;13.342;2023-03-04T14:44:33;92781.75;;;1.37;53.75